sensor_id;sensor_type;location;lat;lon;timestamp;P1;durP1;ratioP1;P2;durP2;ratioP2
1467;SDS011;727;48.892;9.544;2022-11-20T00:01:04;13.30;;;10.70;;
1467;SDS011;727;48.892;9.544;2022-11-20T00:03:31;16.45;;;12.25;;
1467;SDS011;727;48.892;9.544;2022-11-20T00:06:00;16.05;;;12.82;;
1467;SDS011;727;48.892;9.544;2022-11-20T00:08:27;16.75;;;11.63;;
1467;SDS011;727;48.892;9.544;2022-11-20T00:10:54;15.57;;;12.55;;
1467;SDS011;727;48.892;9.544;2022-11-20T00:13:21;17.30;;;12.45;;
1467;SDS011;727;48.892;9.544;2022-11-20T00:15:47;14.02;;;11.35;;
1467;SDS011;727;48.892;9.544;2022-11-20T00:18:14;14.75;;;12.02;;
1467;SDS011;727;48.892;9.544;2022-11-20T00:20:41;14.23;;;10.73;;
1467;SDS011;727;48.892;9.544;2022-11-20T00:23:09;14.25;;;11.38;;
1467;SDS011;727;48.892;9.544;2022-11-20T00:25:35;13.13;;;11.80;;
1467;SDS011;727;48.892;9.544;2022-11-20T00:28:02;14.00;;;11.68;;
1467;SDS011;727;48.892;9.544;2022-11-20T00:30:29;18.10;;;13.32;;
1467;SDS011;727;48.892;9.544;2022-11-20T00:32:56;18.48;;;13.15;;
1467;SDS011;727;48.892;9.544;2022-11-20T00:35:22;14.00;;;11.25;;
1467;SDS011;727;48.892;9.544;2022-11-20T00:37:49;14.23;;;11.20;;
1467;SDS011;727;48.892;9.544;2022-11-20T00:40:17;13.02;;;10.52;;
1467;SDS011;727;48.892;9.544;2022-11-20T00:42:44;16.02;;;11.30;;
1467;SDS011;727;48.892;9.544;2022-11-20T00:45:11;15.57;;;11.82;;
1467;SDS011;727;48.892;9.544;2022-11-20T00:47:37;17.05;;;12.40;;
1467;SDS011;727;48.892;9.544;2022-11-20T00:50:04;13.82;;;10.75;;
1467;SDS011;727;48.892;9.544;2022-11-20T00:52:31;14.88;;;11.57;;
1467;SDS011;727;48.892;9.544;2022-11-20T00:54:58;17.30;;;12.20;;
1467;SDS011;727;48.892;9.544;2022-11-20T00:57:26;15.20;;;11.43;;
1467;SDS011;727;48.892;9.544;2022-11-20T00:59:52;16.45;;;13.10;;
1467;SDS011;727;48.892;9.544;2022-11-20T01:02:19;17.60;;;12.80;;
1467;SDS011;727;48.892;9.544;2022-11-20T01:04:46;15.70;;;11.68;;
1467;SDS011;727;48.892;9.544;2022-11-20T01:07:13;13.73;;;11.75;;
1467;SDS011;727;48.892;9.544;2022-11-20T01:09:39;14.73;;;12.23;;
1467;SDS011;727;48.892;9.544;2022-11-20T01:12:06;16.23;;;13.05;;
1467;SDS011;727;48.892;9.544;2022-11-20T01:14:34;16.52;;;11.63;;
1467;SDS011;727;48.892;9.544;2022-11-20T01:17:01;17.05;;;12.43;;
1467;SDS011;727;48.892;9.544;2022-11-20T01:19:27;18.95;;;11.75;;
1467;SDS011;727;48.892;9.544;2022-11-20T01:21:54;16.15;;;11.75;;
1467;SDS011;727;48.892;9.544;2022-11-20T01:24:21;15.93;;;11.32;;
1467;SDS011;727;48.892;9.544;2022-11-20T01:26:49;14.57;;;12.15;;
1467;SDS011;727;48.892;9.544;2022-11-20T01:29:18;21.08;;;12.95;;
1467;SDS011;727;48.892;9.544;2022-11-20T01:31:47;17.08;;;13.32;;
1467;SDS011;727;48.892;9.544;2022-11-20T01:34:16;19.65;;;13.05;;
1467;SDS011;727;48.892;9.544;2022-11-20T01:36:44;13.77;;;11.65;;
1467;SDS011;727;48.892;9.544;2022-11-20T01:39:12;13.40;;;11.77;;
1467;SDS011;727;48.892;9.544;2022-11-20T01:41:41;13.88;;;11.48;;
1467;SDS011;727;48.892;9.544;2022-11-20T01:44:43;16.85;;;12.95;;
1467;SDS011;727;48.892;9.544;2022-11-20T01:47:19;18.00;;;14.20;;
1467;SDS011;727;48.892;9.544;2022-11-20T01:49:50;14.95;;;12.90;;
1467;SDS011;727;48.892;9.544;2022-11-20T01:52:20;13.80;;;11.95;;
1467;SDS011;727;48.892;9.544;2022-11-20T01:54:51;17.50;;;13.00;;
1467;SDS011;727;48.892;9.544;2022-11-20T01:57:20;18.13;;;14.93;;
1467;SDS011;727;48.892;9.544;2022-11-20T01:59:51;17.35;;;12.98;;
1467;SDS011;727;48.892;9.544;2022-11-20T02:02:21;17.63;;;13.52;;
1467;SDS011;727;48.892;9.544;2022-11-20T02:04:49;17.98;;;13.82;;
1467;SDS011;727;48.892;9.544;2022-11-20T02:07:17;18.75;;;13.35;;
1467;SDS011;727;48.892;9.544;2022-11-20T02:09:46;19.75;;;14.93;;
1467;SDS011;727;48.892;9.544;2022-11-20T02:12:13;17.90;;;14.38;;
1467;SDS011;727;48.892;9.544;2022-11-20T02:14:54;18.40;;;14.20;;
1467;SDS011;727;48.892;9.544;2022-11-20T02:17:22;17.20;;;14.38;;
1467;SDS011;727;48.892;9.544;2022-11-20T02:19:49;18.98;;;13.40;;
1467;SDS011;727;48.892;9.544;2022-11-20T02:22:17;17.27;;;12.30;;
1467;SDS011;727;48.892;9.544;2022-11-20T02:24:48;18.63;;;13.40;;
1467;SDS011;727;48.892;9.544;2022-11-20T02:27:16;13.75;;;12.27;;
1467;SDS011;727;48.892;9.544;2022-11-20T02:29:45;17.75;;;14.10;;
1467;SDS011;727;48.892;9.544;2022-11-20T02:32:19;17.35;;;14.25;;
1467;SDS011;727;48.892;9.544;2022-11-20T02:34:47;16.60;;;13.02;;
1467;SDS011;727;48.892;9.544;2022-11-20T02:37:14;18.92;;;14.15;;
1467;SDS011;727;48.892;9.544;2022-11-20T02:39:42;14.40;;;12.00;;
1467;SDS011;727;48.892;9.544;2022-11-20T02:42:11;15.63;;;13.02;;
1467;SDS011;727;48.892;9.544;2022-11-20T02:44:38;18.45;;;13.07;;
1467;SDS011;727;48.892;9.544;2022-11-20T02:47:05;16.15;;;11.50;;
1467;SDS011;727;48.892;9.544;2022-11-20T02:49:32;14.60;;;11.75;;
1467;SDS011;727;48.892;9.544;2022-11-20T02:51:59;14.00;;;12.00;;
1467;SDS011;727;48.892;9.544;2022-11-20T02:54:25;15.93;;;12.88;;
1467;SDS011;727;48.892;9.544;2022-11-20T02:56:52;18.40;;;13.07;;
1467;SDS011;727;48.892;9.544;2022-11-20T02:59:20;19.13;;;13.75;;
1467;SDS011;727;48.892;9.544;2022-11-20T03:01:47;18.85;;;13.25;;
1467;SDS011;727;48.892;9.544;2022-11-20T03:04:14;16.60;;;13.50;;
1467;SDS011;727;48.892;9.544;2022-11-20T03:06:40;16.58;;;12.85;;
1467;SDS011;727;48.892;9.544;2022-11-20T03:09:07;16.65;;;13.48;;
1467;SDS011;727;48.892;9.544;2022-11-20T03:11:34;18.05;;;12.98;;
1467;SDS011;727;48.892;9.544;2022-11-20T03:14:01;19.02;;;13.40;;
1467;SDS011;727;48.892;9.544;2022-11-20T03:16:30;21.70;;;13.00;;
1467;SDS011;727;48.892;9.544;2022-11-20T03:18:57;14.07;;;11.05;;
1467;SDS011;727;48.892;9.544;2022-11-20T03:21:24;16.85;;;12.45;;
1467;SDS011;727;48.892;9.544;2022-11-20T03:23:52;15.73;;;13.70;;
1467;SDS011;727;48.892;9.544;2022-11-20T03:26:20;16.85;;;12.18;;
1467;SDS011;727;48.892;9.544;2022-11-20T03:28:49;21.02;;;13.95;;
1467;SDS011;727;48.892;9.544;2022-11-20T03:31:17;13.50;;;11.35;;
1467;SDS011;727;48.892;9.544;2022-11-20T03:33:46;17.00;;;12.82;;
1467;SDS011;727;48.892;9.544;2022-11-20T03:36:14;13.43;;;11.68;;
1467;SDS011;727;48.892;9.544;2022-11-20T03:38:42;13.07;;;11.15;;
1467;SDS011;727;48.892;9.544;2022-11-20T03:41:09;16.45;;;13.32;;
1467;SDS011;727;48.892;9.544;2022-11-20T03:43:37;15.65;;;11.70;;
1467;SDS011;727;48.892;9.544;2022-11-20T03:46:04;13.02;;;11.60;;
1467;SDS011;727;48.892;9.544;2022-11-20T03:48:31;14.10;;;10.80;;
1467;SDS011;727;48.892;9.544;2022-11-20T03:51:12;12.00;;;10.07;;
1467;SDS011;727;48.892;9.544;2022-11-20T03:53:41;15.07;;;11.98;;
1467;SDS011;727;48.892;9.544;2022-11-20T03:56:09;11.07;;;10.00;;
1467;SDS011;727;48.892;9.544;2022-11-20T03:58:37;12.40;;;9.45;;
1467;SDS011;727;48.892;9.544;2022-11-20T04:01:05;15.77;;;10.02;;
1467;SDS011;727;48.892;9.544;2022-11-20T04:03:33;10.65;;;8.90;;
1467;SDS011;727;48.892;9.544;2022-11-20T04:06:01;11.10;;;9.88;;
1467;SDS011;727;48.892;9.544;2022-11-20T04:08:31;9.60;;;8.57;;
1467;SDS011;727;48.892;9.544;2022-11-20T04:11:07;9.48;;;7.13;;
1467;SDS011;727;48.892;9.544;2022-11-20T04:13:35;8.73;;;7.63;;
1467;SDS011;727;48.892;9.544;2022-11-20T04:16:02;11.25;;;8.15;;
1467;SDS011;727;48.892;9.544;2022-11-20T04:18:28;9.40;;;7.38;;
1467;SDS011;727;48.892;9.544;2022-11-20T04:20:56;8.48;;;6.50;;
1467;SDS011;727;48.892;9.544;2022-11-20T04:23:22;6.85;;;6.22;;
1467;SDS011;727;48.892;9.544;2022-11-20T04:25:50;7.85;;;7.05;;
1467;SDS011;727;48.892;9.544;2022-11-20T04:28:17;9.45;;;7.10;;
1467;SDS011;727;48.892;9.544;2022-11-20T04:30:44;7.90;;;6.30;;
1467;SDS011;727;48.892;9.544;2022-11-20T04:33:11;7.88;;;7.18;;
1467;SDS011;727;48.892;9.544;2022-11-20T04:35:37;8.43;;;7.30;;
1467;SDS011;727;48.892;9.544;2022-11-20T04:38:04;7.72;;;7.00;;
1467;SDS011;727;48.892;9.544;2022-11-20T04:40:31;7.05;;;6.35;;
1467;SDS011;727;48.892;9.544;2022-11-20T04:42:59;10.23;;;6.88;;
1467;SDS011;727;48.892;9.544;2022-11-20T04:45:26;7.63;;;6.70;;
1467;SDS011;727;48.892;9.544;2022-11-20T04:47:52;8.43;;;6.80;;
1467;SDS011;727;48.892;9.544;2022-11-20T04:50:19;11.50;;;7.18;;
1467;SDS011;727;48.892;9.544;2022-11-20T04:52:46;8.57;;;7.05;;
1467;SDS011;727;48.892;9.544;2022-11-20T04:55:12;6.80;;;6.18;;
1467;SDS011;727;48.892;9.544;2022-11-20T04:57:39;10.75;;;7.85;;
1467;SDS011;727;48.892;9.544;2022-11-20T05:00:08;9.63;;;6.30;;
1467;SDS011;727;48.892;9.544;2022-11-20T05:02:35;11.77;;;8.10;;
1467;SDS011;727;48.892;9.544;2022-11-20T05:05:02;8.93;;;6.57;;
1467;SDS011;727;48.892;9.544;2022-11-20T05:07:29;8.07;;;5.72;;
1467;SDS011;727;48.892;9.544;2022-11-20T05:09:57;8.63;;;6.88;;
1467;SDS011;727;48.892;9.544;2022-11-20T05:12:24;10.70;;;6.55;;
1467;SDS011;727;48.892;9.544;2022-11-20T05:14:50;5.65;;;5.10;;
1467;SDS011;727;48.892;9.544;2022-11-20T05:17:18;8.43;;;7.57;;
1467;SDS011;727;48.892;9.544;2022-11-20T05:19:45;6.50;;;5.85;;
1467;SDS011;727;48.892;9.544;2022-11-20T05:22:12;7.47;;;6.28;;
1467;SDS011;727;48.892;9.544;2022-11-20T05:24:38;7.53;;;6.80;;
1467;SDS011;727;48.892;9.544;2022-11-20T05:27:05;9.00;;;6.50;;
1467;SDS011;727;48.892;9.544;2022-11-20T05:29:32;7.85;;;7.15;;
1467;SDS011;727;48.892;9.544;2022-11-20T05:31:58;7.15;;;6.47;;
1467;SDS011;727;48.892;9.544;2022-11-20T05:34:27;9.45;;;7.07;;
1467;SDS011;727;48.892;9.544;2022-11-20T05:36:53;7.50;;;6.80;;
1467;SDS011;727;48.892;9.544;2022-11-20T05:39:20;9.05;;;7.53;;
1467;SDS011;727;48.892;9.544;2022-11-20T05:41:47;9.40;;;7.97;;
1467;SDS011;727;48.892;9.544;2022-11-20T05:44:34;6.70;;;6.10;;
1467;SDS011;727;48.892;9.544;2022-11-20T05:47:01;12.23;;;7.55;;
1467;SDS011;727;48.892;9.544;2022-11-20T05:49:29;7.65;;;6.85;;
1467;SDS011;727;48.892;9.544;2022-11-20T05:51:56;30.98;;;12.38;;
1467;SDS011;727;48.892;9.544;2022-11-20T05:54:23;32.08;;;15.55;;
1467;SDS011;727;48.892;9.544;2022-11-20T05:56:49;46.53;;;24.40;;
1467;SDS011;727;48.892;9.544;2022-11-20T05:59:16;91.65;;;41.88;;
1467;SDS011;727;48.892;9.544;2022-11-20T06:01:42;108.65;;;44.25;;
1467;SDS011;727;48.892;9.544;2022-11-20T06:04:09;76.53;;;33.47;;
1467;SDS011;727;48.892;9.544;2022-11-20T06:06:37;46.03;;;24.58;;
1467;SDS011;727;48.892;9.544;2022-11-20T06:09:04;31.80;;;18.42;;
1467;SDS011;727;48.892;9.544;2022-11-20T06:11:31;18.58;;;13.05;;
1467;SDS011;727;48.892;9.544;2022-11-20T06:13:57;10.32;;;7.22;;
1467;SDS011;727;48.892;9.544;2022-11-20T06:16:25;9.00;;;8.13;;
1467;SDS011;727;48.892;9.544;2022-11-20T06:18:51;8.82;;;8.02;;
1467;SDS011;727;48.892;9.544;2022-11-20T06:21:19;10.52;;;9.35;;
1467;SDS011;727;48.892;9.544;2022-11-20T06:23:48;9.52;;;8.20;;
1467;SDS011;727;48.892;9.544;2022-11-20T06:26:17;19.40;;;12.57;;
1467;SDS011;727;48.892;9.544;2022-11-20T06:28:45;12.85;;;9.73;;
1467;SDS011;727;48.892;9.544;2022-11-20T06:31:13;11.60;;;10.43;;
1467;SDS011;727;48.892;9.544;2022-11-20T06:33:42;9.88;;;8.88;;
1467;SDS011;727;48.892;9.544;2022-11-20T06:36:10;10.88;;;9.52;;
1467;SDS011;727;48.892;9.544;2022-11-20T06:38:37;7.95;;;7.15;;
1467;SDS011;727;48.892;9.544;2022-11-20T06:41:05;10.43;;;9.48;;
1467;SDS011;727;48.892;9.544;2022-11-20T06:43:32;7.13;;;6.53;;
1467;SDS011;727;48.892;9.544;2022-11-20T06:45:59;7.95;;;7.25;;
1467;SDS011;727;48.892;9.544;2022-11-20T06:48:26;5.93;;;5.43;;
1467;SDS011;727;48.892;9.544;2022-11-20T06:50:53;7.88;;;5.88;;
1467;SDS011;727;48.892;9.544;2022-11-20T06:53:21;7.10;;;6.40;;
1467;SDS011;727;48.892;9.544;2022-11-20T06:55:48;8.35;;;6.53;;
1467;SDS011;727;48.892;9.544;2022-11-20T06:58:17;7.80;;;6.85;;
1467;SDS011;727;48.892;9.544;2022-11-20T07:00:44;6.57;;;6.07;;
1467;SDS011;727;48.892;9.544;2022-11-20T07:03:11;7.65;;;6.65;;
1467;SDS011;727;48.892;9.544;2022-11-20T07:05:38;8.80;;;7.70;;
1467;SDS011;727;48.892;9.544;2022-11-20T07:08:06;9.48;;;7.38;;
1467;SDS011;727;48.892;9.544;2022-11-20T07:10:32;12.52;;;7.10;;
1467;SDS011;727;48.892;9.544;2022-11-20T07:13:00;6.75;;;6.15;;
1467;SDS011;727;48.892;9.544;2022-11-20T07:15:28;7.32;;;6.53;;
1467;SDS011;727;48.892;9.544;2022-11-20T07:17:55;8.50;;;7.18;;
1467;SDS011;727;48.892;9.544;2022-11-20T07:20:24;6.97;;;6.32;;
1467;SDS011;727;48.892;9.544;2022-11-20T07:22:52;7.63;;;6.63;;
1467;SDS011;727;48.892;9.544;2022-11-20T07:25:20;6.43;;;5.90;;
1467;SDS011;727;48.892;9.544;2022-11-20T07:27:46;7.72;;;7.03;;
1467;SDS011;727;48.892;9.544;2022-11-20T07:30:13;9.07;;;8.27;;
1467;SDS011;727;48.892;9.544;2022-11-20T07:32:41;20.58;;;18.45;;
1467;SDS011;727;48.892;9.544;2022-11-20T07:35:08;10.02;;;8.32;;
1467;SDS011;727;48.892;9.544;2022-11-20T07:37:35;6.88;;;5.60;;
1467;SDS011;727;48.892;9.544;2022-11-20T07:40:02;14.38;;;12.50;;
1467;SDS011;727;48.892;9.544;2022-11-20T07:42:29;10.50;;;9.40;;
1467;SDS011;727;48.892;9.544;2022-11-20T07:44:56;34.13;;;21.83;;
1467;SDS011;727;48.892;9.544;2022-11-20T07:47:22;32.53;;;23.92;;
1467;SDS011;727;48.892;9.544;2022-11-20T07:49:51;16.90;;;13.70;;
1467;SDS011;727;48.892;9.544;2022-11-20T07:52:17;15.15;;;13.30;;
1467;SDS011;727;48.892;9.544;2022-11-20T07:54:44;11.05;;;10.05;;
1467;SDS011;727;48.892;9.544;2022-11-20T07:57:11;8.90;;;8.23;;
1467;SDS011;727;48.892;9.544;2022-11-20T07:59:37;7.75;;;7.15;;
1467;SDS011;727;48.892;9.544;2022-11-20T08:02:05;7.43;;;6.82;;
1467;SDS011;727;48.892;9.544;2022-11-20T08:04:31;6.10;;;5.60;;
1467;SDS011;727;48.892;9.544;2022-11-20T08:06:59;5.85;;;4.68;;
1467;SDS011;727;48.892;9.544;2022-11-20T08:09:26;5.40;;;4.90;;
1467;SDS011;727;48.892;9.544;2022-11-20T08:11:53;5.55;;;4.65;;
1467;SDS011;727;48.892;9.544;2022-11-20T08:14:37;9.30;;;6.97;;
1467;SDS011;727;48.892;9.544;2022-11-20T08:17:04;6.55;;;5.90;;
1467;SDS011;727;48.892;9.544;2022-11-20T08:19:31;5.68;;;4.93;;
1467;SDS011;727;48.892;9.544;2022-11-20T08:21:57;13.82;;;6.30;;
1467;SDS011;727;48.892;9.544;2022-11-20T08:24:25;7.65;;;6.82;;
1467;SDS011;727;48.892;9.544;2022-11-20T08:26:52;5.13;;;4.72;;
1467;SDS011;727;48.892;9.544;2022-11-20T08:29:19;5.55;;;5.13;;
1467;SDS011;727;48.892;9.544;2022-11-20T08:31:46;4.72;;;4.15;;
1467;SDS011;727;48.892;9.544;2022-11-20T08:34:13;5.70;;;4.80;;
1467;SDS011;727;48.892;9.544;2022-11-20T08:36:40;7.90;;;5.68;;
1467;SDS011;727;48.892;9.544;2022-11-20T08:39:10;9.43;;;6.30;;
1467;SDS011;727;48.892;9.544;2022-11-20T08:41:38;7.78;;;5.72;;
1467;SDS011;727;48.892;9.544;2022-11-20T08:44:05;5.00;;;4.50;;
1467;SDS011;727;48.892;9.544;2022-11-20T08:46:34;5.95;;;5.45;;
1467;SDS011;727;48.892;9.544;2022-11-20T08:49:02;6.47;;;5.45;;
1467;SDS011;727;48.892;9.544;2022-11-20T08:51:29;5.75;;;5.25;;
1467;SDS011;727;48.892;9.544;2022-11-20T08:53:56;6.82;;;6.22;;
1467;SDS011;727;48.892;9.544;2022-11-20T08:56:24;5.78;;;5.28;;
1467;SDS011;727;48.892;9.544;2022-11-20T08:58:51;7.72;;;7.00;;
1467;SDS011;727;48.892;9.544;2022-11-20T09:01:18;6.88;;;6.28;;
1467;SDS011;727;48.892;9.544;2022-11-20T09:03:45;6.97;;;6.32;;
1467;SDS011;727;48.892;9.544;2022-11-20T09:06:12;9.90;;;9.00;;
1467;SDS011;727;48.892;9.544;2022-11-20T09:08:39;8.02;;;7.05;;
1467;SDS011;727;48.892;9.544;2022-11-20T09:11:06;6.00;;;5.47;;
1467;SDS011;727;48.892;9.544;2022-11-20T09:13:35;6.15;;;5.13;;
1467;SDS011;727;48.892;9.544;2022-11-20T09:16:03;8.27;;;7.00;;
1467;SDS011;727;48.892;9.544;2022-11-20T09:18:31;7.88;;;7.05;;
1467;SDS011;727;48.892;9.544;2022-11-20T09:21:02;9.35;;;8.45;;
1467;SDS011;727;48.892;9.544;2022-11-20T09:23:31;7.82;;;7.00;;
1467;SDS011;727;48.892;9.544;2022-11-20T09:26:01;6.90;;;6.22;;
1467;SDS011;727;48.892;9.544;2022-11-20T09:28:29;7.43;;;5.70;;
1467;SDS011;727;48.892;9.544;2022-11-20T09:30:57;8.45;;;7.20;;
1467;SDS011;727;48.892;9.544;2022-11-20T09:33:24;7.90;;;6.50;;
1467;SDS011;727;48.892;9.544;2022-11-20T09:35:51;12.32;;;10.68;;
1467;SDS011;727;48.892;9.544;2022-11-20T09:38:17;14.40;;;11.57;;
1467;SDS011;727;48.892;9.544;2022-11-20T09:40:45;11.38;;;10.20;;
1467;SDS011;727;48.892;9.544;2022-11-20T09:43:19;17.20;;;11.35;;
1467;SDS011;727;48.892;9.544;2022-11-20T09:45:56;11.05;;;8.40;;
1467;SDS011;727;48.892;9.544;2022-11-20T09:48:34;21.85;;;14.23;;
1467;SDS011;727;48.892;9.544;2022-11-20T09:51:11;33.17;;;23.65;;
1467;SDS011;727;48.892;9.544;2022-11-20T09:53:52;19.80;;;15.13;;
1467;SDS011;727;48.892;9.544;2022-11-20T09:56:30;10.70;;;8.93;;
1467;SDS011;727;48.892;9.544;2022-11-20T09:58:57;12.70;;;9.98;;
1467;SDS011;727;48.892;9.544;2022-11-20T10:01:34;15.00;;;13.48;;
1467;SDS011;727;48.892;9.544;2022-11-20T10:04:06;15.07;;;13.32;;
1467;SDS011;727;48.892;9.544;2022-11-20T10:06:41;10.75;;;9.65;;
1467;SDS011;727;48.892;9.544;2022-11-20T10:09:14;10.50;;;9.02;;
1467;SDS011;727;48.892;9.544;2022-11-20T10:11:50;10.82;;;9.10;;
1467;SDS011;727;48.892;9.544;2022-11-20T10:14:29;9.20;;;8.30;;
1467;SDS011;727;48.892;9.544;2022-11-20T10:17:08;5.90;;;5.35;;
1467;SDS011;727;48.892;9.544;2022-11-20T10:19:47;5.97;;;5.43;;
1467;SDS011;727;48.892;9.544;2022-11-20T10:22:28;4.93;;;4.53;;
1467;SDS011;727;48.892;9.544;2022-11-20T10:25:12;3.72;;;3.42;;
1467;SDS011;727;48.892;9.544;2022-11-20T10:27:47;4.05;;;3.65;;
1467;SDS011;727;48.892;9.544;2022-11-20T10:30:40;3.97;;;3.58;;
1467;SDS011;727;48.892;9.544;2022-11-20T10:33:13;5.35;;;4.82;;
1467;SDS011;727;48.892;9.544;2022-11-20T10:35:43;3.25;;;3.03;;
1467;SDS011;727;48.892;9.544;2022-11-20T10:38:18;5.38;;;4.53;;
1467;SDS011;727;48.892;9.544;2022-11-20T10:40:48;6.60;;;5.82;;
1467;SDS011;727;48.892;9.544;2022-11-20T10:43:18;14.68;;;7.78;;
1467;SDS011;727;48.892;9.544;2022-11-20T10:45:51;8.27;;;6.70;;
1467;SDS011;727;48.892;9.544;2022-11-20T10:48:24;7.47;;;6.72;;
1467;SDS011;727;48.892;9.544;2022-11-20T10:50:57;9.50;;;8.55;;
1467;SDS011;727;48.892;9.544;2022-11-20T10:53:45;11.75;;;9.77;;
1467;SDS011;727;48.892;9.544;2022-11-20T10:56:21;10.57;;;8.60;;
1467;SDS011;727;48.892;9.544;2022-11-20T10:59:10;5.35;;;4.82;;
1467;SDS011;727;48.892;9.544;2022-11-20T11:01:50;5.28;;;4.78;;
1467;SDS011;727;48.892;9.544;2022-11-20T11:04:23;5.13;;;3.78;;
1467;SDS011;727;48.892;9.544;2022-11-20T11:07:01;5.82;;;3.80;;
1467;SDS011;727;48.892;9.544;2022-11-20T11:09:35;4.07;;;3.78;;
1467;SDS011;727;48.892;9.544;2022-11-20T11:12:06;4.85;;;3.65;;
1467;SDS011;727;48.892;9.544;2022-11-20T11:14:41;5.72;;;3.95;;
1467;SDS011;727;48.892;9.544;2022-11-20T11:17:17;7.82;;;5.15;;
1467;SDS011;727;48.892;9.544;2022-11-20T11:19:57;3.13;;;2.83;;
1467;SDS011;727;48.892;9.544;2022-11-20T11:22:28;5.18;;;4.10;;
1467;SDS011;727;48.892;9.544;2022-11-20T11:24:56;4.75;;;3.85;;
1467;SDS011;727;48.892;9.544;2022-11-20T11:27:23;4.45;;;3.30;;
1467;SDS011;727;48.892;9.544;2022-11-20T11:29:50;3.47;;;3.03;;
1467;SDS011;727;48.892;9.544;2022-11-20T11:32:30;3.28;;;2.92;;
1467;SDS011;727;48.892;9.544;2022-11-20T11:35:03;4.47;;;3.65;;
1467;SDS011;727;48.892;9.544;2022-11-20T11:37:32;6.78;;;4.85;;
1467;SDS011;727;48.892;9.544;2022-11-20T11:40:01;6.45;;;3.83;;
1467;SDS011;727;48.892;9.544;2022-11-20T11:42:29;3.08;;;2.85;;
1467;SDS011;727;48.892;9.544;2022-11-20T11:44:56;3.72;;;3.42;;
1467;SDS011;727;48.892;9.544;2022-11-20T11:47:31;4.57;;;4.18;;
1467;SDS011;727;48.892;9.544;2022-11-20T11:50:15;5.53;;;5.07;;
1467;SDS011;727;48.892;9.544;2022-11-20T11:52:44;4.88;;;4.38;;
1467;SDS011;727;48.892;9.544;2022-11-20T11:55:16;5.78;;;4.40;;
1467;SDS011;727;48.892;9.544;2022-11-20T11:57:52;4.13;;;3.83;;
1467;SDS011;727;48.892;9.544;2022-11-20T12:00:23;7.07;;;5.57;;
1467;SDS011;727;48.892;9.544;2022-11-20T12:02:54;3.58;;;3.33;;
1467;SDS011;727;48.892;9.544;2022-11-20T12:05:33;5.45;;;4.60;;
1467;SDS011;727;48.892;9.544;2022-11-20T12:08:05;4.43;;;3.85;;
1467;SDS011;727;48.892;9.544;2022-11-20T12:10:41;2.85;;;2.65;;
1467;SDS011;727;48.892;9.544;2022-11-20T12:13:17;2.00;;;1.90;;
1467;SDS011;727;48.892;9.544;2022-11-20T12:15:47;2.17;;;1.97;;
1467;SDS011;727;48.892;9.544;2022-11-20T12:18:16;2.53;;;1.90;;
1467;SDS011;727;48.892;9.544;2022-11-20T12:20:48;2.40;;;2.30;;
1467;SDS011;727;48.892;9.544;2022-11-20T12:23:24;3.28;;;3.08;;
1467;SDS011;727;48.892;9.544;2022-11-20T12:25:56;3.45;;;2.95;;
1467;SDS011;727;48.892;9.544;2022-11-20T12:31:37;3.20;;;2.33;;
1467;SDS011;727;48.892;9.544;2022-11-20T12:37:33;5.88;;;1.90;;
1467;SDS011;727;48.892;9.544;2022-11-20T12:40:12;5.95;;;2.53;;
1467;SDS011;727;48.892;9.544;2022-11-20T12:42:52;2.75;;;2.42;;
1467;SDS011;727;48.892;9.544;2022-11-20T12:45:51;4.65;;;2.65;;
1467;SDS011;727;48.892;9.544;2022-11-20T12:48:31;2.78;;;2.58;;
1467;SDS011;727;48.892;9.544;2022-11-20T12:51:09;4.13;;;3.72;;
1467;SDS011;727;48.892;9.544;2022-11-20T12:54:03;4.00;;;2.40;;
1467;SDS011;727;48.892;9.544;2022-11-20T12:56:47;4.95;;;3.83;;
1467;SDS011;727;48.892;9.544;2022-11-20T12:59:22;7.28;;;5.28;;
1467;SDS011;727;48.892;9.544;2022-11-20T13:02:02;5.00;;;2.95;;
1467;SDS011;727;48.892;9.544;2022-11-20T13:04:48;2.93;;;2.73;;
1467;SDS011;727;48.892;9.544;2022-11-20T13:07:28;3.93;;;3.00;;
1467;SDS011;727;48.892;9.544;2022-11-20T13:09:59;3.17;;;2.88;;
1467;SDS011;727;48.892;9.544;2022-11-20T13:12:29;2.65;;;2.47;;
1467;SDS011;727;48.892;9.544;2022-11-20T13:15:02;2.35;;;2.15;;
1467;SDS011;727;48.892;9.544;2022-11-20T13:17:38;6.18;;;3.00;;
1467;SDS011;727;48.892;9.544;2022-11-20T13:20:12;2.27;;;2.00;;
1467;SDS011;727;48.892;9.544;2022-11-20T13:22:42;3.03;;;2.10;;
1467;SDS011;727;48.892;9.544;2022-11-20T13:25:21;1.57;;;1.47;;
1467;SDS011;727;48.892;9.544;2022-11-20T13:27:49;1.20;;;1.10;;
1467;SDS011;727;48.892;9.544;2022-11-20T13:30:17;2.23;;;1.23;;
1467;SDS011;727;48.892;9.544;2022-11-20T13:32:52;2.97;;;1.43;;
1467;SDS011;727;48.892;9.544;2022-11-20T13:35:27;1.47;;;1.37;;
1467;SDS011;727;48.892;9.544;2022-11-20T13:37:59;2.40;;;1.37;;
1467;SDS011;727;48.892;9.544;2022-11-20T13:40:28;1.30;;;1.20;;
1467;SDS011;727;48.892;9.544;2022-11-20T13:42:56;4.70;;;1.50;;
1467;SDS011;727;48.892;9.544;2022-11-20T13:45:28;1.50;;;1.40;;
1467;SDS011;727;48.892;9.544;2022-11-20T13:47:57;1.90;;;1.57;;
1467;SDS011;727;48.892;9.544;2022-11-20T13:50:31;2.33;;;1.53;;
1467;SDS011;727;48.892;9.544;2022-11-20T13:53:10;2.20;;;1.33;;
1467;SDS011;727;48.892;9.544;2022-11-20T13:55:50;1.00;;;1.00;;
1467;SDS011;727;48.892;9.544;2022-11-20T13:58:24;5.05;;;1.27;;
1467;SDS011;727;48.892;9.544;2022-11-20T14:01:07;7.80;;;3.73;;
1467;SDS011;727;48.892;9.544;2022-11-20T14:03:35;2.95;;;2.65;;
1467;SDS011;727;48.892;9.544;2022-11-20T14:06:05;4.22;;;2.40;;
1467;SDS011;727;48.892;9.544;2022-11-20T14:08:39;3.10;;;2.22;;
1467;SDS011;727;48.892;9.544;2022-11-20T14:11:13;10.20;;;5.70;;
1467;SDS011;727;48.892;9.544;2022-11-20T14:13:52;25.45;;;12.07;;
1467;SDS011;727;48.892;9.544;2022-11-20T14:16:21;39.45;;;15.48;;
1467;SDS011;727;48.892;9.544;2022-11-20T14:18:48;13.20;;;5.75;;
1467;SDS011;727;48.892;9.544;2022-11-20T14:21:21;4.47;;;2.38;;
1467;SDS011;727;48.892;9.544;2022-11-20T14:23:49;2.75;;;1.60;;
1467;SDS011;727;48.892;9.544;2022-11-20T14:26:20;2.85;;;1.52;;
1467;SDS011;727;48.892;9.544;2022-11-20T14:28:47;5.15;;;3.42;;
1467;SDS011;727;48.892;9.544;2022-11-20T14:31:18;5.70;;;4.25;;
1467;SDS011;727;48.892;9.544;2022-11-20T14:33:49;5.95;;;3.67;;
1467;SDS011;727;48.892;9.544;2022-11-20T14:36:18;1.88;;;1.60;;
1467;SDS011;727;48.892;9.544;2022-11-20T14:38:47;6.88;;;4.80;;
1467;SDS011;727;48.892;9.544;2022-11-20T14:41:16;5.60;;;3.00;;
1467;SDS011;727;48.892;9.544;2022-11-20T14:43:46;2.60;;;2.17;;
1467;SDS011;727;48.892;9.544;2022-11-20T14:46:15;3.22;;;2.50;;
1467;SDS011;727;48.892;9.544;2022-11-20T14:48:44;5.15;;;2.38;;
1467;SDS011;727;48.892;9.544;2022-11-20T14:51:23;2.95;;;2.72;;
1467;SDS011;727;48.892;9.544;2022-11-20T14:53:53;7.65;;;6.32;;
1467;SDS011;727;48.892;9.544;2022-11-20T14:56:21;13.63;;;9.52;;
1467;SDS011;727;48.892;9.544;2022-11-20T14:58:56;13.70;;;7.78;;
1467;SDS011;727;48.892;9.544;2022-11-20T15:01:26;5.57;;;3.55;;
1467;SDS011;727;48.892;9.544;2022-11-20T15:04:01;5.25;;;3.60;;
1467;SDS011;727;48.892;9.544;2022-11-20T15:06:31;5.70;;;5.13;;
1467;SDS011;727;48.892;9.544;2022-11-20T15:08:58;1.90;;;1.80;;
1467;SDS011;727;48.892;9.544;2022-11-20T15:11:29;5.70;;;4.55;;
1467;SDS011;727;48.892;9.544;2022-11-20T15:13:58;6.88;;;4.95;;
1467;SDS011;727;48.892;9.544;2022-11-20T15:16:29;3.83;;;2.70;;
1467;SDS011;727;48.892;9.544;2022-11-20T15:18:57;5.47;;;2.13;;
1467;SDS011;727;48.892;9.544;2022-11-20T15:21:26;2.83;;;2.10;;
1467;SDS011;727;48.892;9.544;2022-11-20T15:23:52;2.97;;;1.77;;
1467;SDS011;727;48.892;9.544;2022-11-20T15:26:21;2.00;;;1.77;;
1467;SDS011;727;48.892;9.544;2022-11-20T15:28:50;3.55;;;2.22;;
1467;SDS011;727;48.892;9.544;2022-11-20T15:31:19;3.25;;;2.55;;
1467;SDS011;727;48.892;9.544;2022-11-20T15:33:48;3.13;;;2.15;;
1467;SDS011;727;48.892;9.544;2022-11-20T15:36:15;2.80;;;1.92;;
1467;SDS011;727;48.892;9.544;2022-11-20T15:38:42;2.20;;;2.00;;
1467;SDS011;727;48.892;9.544;2022-11-20T15:41:09;1.98;;;1.88;;
1467;SDS011;727;48.892;9.544;2022-11-20T15:43:36;2.45;;;1.50;;